ADDS TAF Data INFO
IDs: Format: Raw Decoded Include METARs

Data at: 1013 UTC 14 Dec 2017

METAR for:KTCL (Tuscaloosa Rgnl, AL, US)
Text:KTCL 140953Z AUTO 00000KT 10SM CLR 00/M01 A2992 RMK AO2 SLP132 T00001011
Temperature: 0.0°C ( 32°F)
Dewpoint: -1.1°C ( 30°F) [RH = 92%]
Pressure (altimeter):29.92 inches Hg (1013.3 mb) [Sea level pressure: 1013.2 mb]
Winds:calm
Visibility:10 or more sm (16+ km)
Ceiling:at least 12,000 feet AGL
Clouds:sky clear below 12,000 feet AGL
QC Flag:automated observation with no human augmentation

TAF for:KTCL (Tuscaloosa Rgnl, AL, US) issued at 0538 UTC 14 Dec 2017
Text:KTCL 140538Z 1406/1506 23005KT P6SM SKC
Forecast period:0600 to 1500 UTC 14 December 2017
Forecast type:FROM: standard forecast or significant change
Winds:from the SW (230 degrees) at 6 MPH (5 knots; 2.6 m/s)
Visibility:6 or more sm (10+ km)
Ceiling:at least 12,000 feet AGL
Clouds:clear skies
Text:FM141500 31005KT P6SM SKC
Forecast period:1500 UTC 14 December 2017 to 0600 UTC 15 December 2017
Forecast type:FROM: standard forecast or significant change
Winds:from the NW (310 degrees) at 6 MPH (5 knots; 2.6 m/s)
Visibility:6 or more sm (10+ km)
Ceiling:at least 12,000 feet AGL
Clouds:clear skies